Time;durP1;ratioP1;P1;durP2;ratioP2;P2;SDS_P1;SDS_P2;PMS_P1;PMS_P2;Temp;Humidity;BMP_temperature;BMP_pressure;BME280_temperature;BME280_humidity;BME280_pressure;Samples;Min_cycle;Max_cycle;Signal;HPM_P1;HPM_P2
2022/01/17 00:01:29;;;;;;;46.45;4.00;;;;;;;;;;5045476;28;20114;-84
2022/01/17 00:03:55;;;;;;;26.75;4.30;;;;;;;;;;5025468;28;20064;-84
2022/01/17 00:06:21;;;;;;;22.52;3.15;;;;;;;;;;5045808;28;20037;-84
2022/01/17 00:08:49;;;;;;;27.80;3.63;;;;;;;;;;5043422;28;20413;-84
2022/01/17 00:11:16;;;;;;;21.73;3.00;;;;;;;;;;5048981;28;20045;-84
2022/01/17 00:13:43;;;;;;;24.88;3.08;;;;;;;;;;5013161;28;20116;-86
2022/01/17 00:16:14;;;;;;;18.88;2.75;;;;;;;;;;5024764;28;20068;-82
2022/01/17 00:21:13;;;;;;;24.88;3.55;;;;;;;;;;5025682;28;20033;-85
2022/01/17 00:23:39;;;;;;;24.67;3.80;;;;;;;;;;5045501;28;20044;-84
2022/01/17 00:26:05;;;;;;;24.15;3.15;;;;;;;;;;5042664;28;20045;-85
2022/01/17 00:28:32;;;;;;;21.48;2.60;;;;;;;;;;5045908;28;20041;-84
2022/01/17 00:31:00;;;;;;;27.00;3.00;;;;;;;;;;5045030;28;20056;-85
2022/01/17 00:33:27;;;;;;;28.20;3.60;;;;;;;;;;5042891;28;20049;-84
2022/01/17 00:35:53;;;;;;;25.98;3.25;;;;;;;;;;5021996;28;20041;-82
2022/01/17 00:38:19;;;;;;;29.00;4.07;;;;;;;;;;5043730;28;20048;-83
2022/01/17 00:40:48;;;;;;;20.48;3.20;;;;;;;;;;5044373;28;20044;-84
2022/01/17 00:43:15;;;;;;;22.48;3.65;;;;;;;;;;5042516;28;20077;-83
2022/01/17 00:45:43;;;;;;;20.27;4.30;;;;;;;;;;5044930;28;20066;-84
2022/01/17 00:48:10;;;;;;;28.80;3.92;;;;;;;;;;5042677;28;20049;-84
2022/01/17 00:50:37;;;;;;;27.45;3.70;;;;;;;;;;4996103;28;20037;-84
2022/01/17 00:53:04;;;;;;;31.83;3.35;;;;;;;;;;5044548;28;20077;-85
2022/01/17 00:55:31;;;;;;;22.08;3.15;;;;;;;;;;5027998;28;20037;-82
2022/01/17 00:57:58;;;;;;;30.02;3.63;;;;;;;;;;5048703;28;20382;-83
2022/01/17 01:00:24;;;;;;;32.63;4.38;;;;;;;;;;5019440;28;20045;-82
2022/01/17 01:02:51;;;;;;;31.52;3.50;;;;;;;;;;5031500;28;20124;-83
2022/01/17 01:05:17;;;;;;;24.08;2.90;;;;;;;;;;5046433;28;20136;-82
2022/01/17 01:07:43;;;;;;;24.52;3.28;;;;;;;;;;5048136;28;20517;-83
2022/01/17 01:10:12;;;;;;;17.50;2.88;;;;;;;;;;5049021;28;20130;-85
2022/01/17 01:12:39;;;;;;;28.17;3.38;;;;;;;;;;5029638;28;20497;-82
2022/01/17 01:15:13;;;;;;;22.20;3.00;;;;;;;;;;5026816;28;20115;-84
2022/01/17 01:17:54;;;;;;;29.83;3.17;;;;;;;;;;5043511;28;20068;-84
2022/01/17 01:28:20;;;;;;;30.00;3.78;;;;;;;;;;5046173;28;20511;-84
2022/01/17 01:30:50;;;;;;;35.40;3.17;;;;;;;;;;5046322;28;20103;-82
2022/01/17 01:33:26;;;;;;;25.00;3.42;;;;;;;;;;5045148;28;20049;-85
2022/01/17 01:35:59;;;;;;;23.40;4.43;;;;;;;;;;5045451;28;20049;-84
2022/01/17 01:38:26;;;;;;;19.90;2.53;;;;;;;;;;5015649;28;20489;-83
2022/01/17 01:40:52;;;;;;;20.45;3.47;;;;;;;;;;5047681;28;20055;-84
2022/01/17 01:43:18;;;;;;;27.67;2.78;;;;;;;;;;5046719;28;20033;-84
2022/01/17 01:45:57;;;;;;;23.92;3.20;;;;;;;;;;5048114;28;20048;-83
2022/01/17 01:48:23;;;;;;;29.02;3.92;;;;;;;;;;5045285;28;20045;-84
2022/01/17 01:50:49;;;;;;;19.33;3.30;;;;;;;;;;5047850;28;20040;-85
2022/01/17 01:53:15;;;;;;;23.73;3.05;;;;;;;;;;5042752;28;20053;-86
2022/01/17 01:55:42;;;;;;;17.00;3.50;;;;;;;;;;5044372;28;20595;-83
2022/01/17 01:58:09;;;;;;;24.13;2.95;;;;;;;;;;5047275;28;20053;-85
2022/01/17 02:00:35;;;;;;;25.52;3.33;;;;;;;;;;5045190;28;20041;-85
2022/01/17 02:03:01;;;;;;;26.55;3.40;;;;;;;;;;5046208;28;20045;-82
2022/01/17 02:05:27;;;;;;;39.47;3.63;;;;;;;;;;5044526;28;20064;-84
2022/01/17 02:07:53;;;;;;;36.20;4.68;;;;;;;;;;5047270;28;20041;-84
2022/01/17 02:10:19;;;;;;;23.75;3.67;;;;;;;;;;5027534;28;20075;-85
2022/01/17 02:12:45;;;;;;;31.25;4.47;;;;;;;;;;5045481;28;21661;-85
2022/01/17 02:15:13;;;;;;;26.17;4.57;;;;;;;;;;5045594;28;20041;-85
2022/01/17 02:17:45;;;;;;;28.20;3.42;;;;;;;;;;5046394;28;20033;-84
2022/01/17 02:20:16;;;;;;;20.20;3.00;;;;;;;;;;5047367;28;20507;-85
2022/01/17 02:22:43;;;;;;;28.88;3.67;;;;;;;;;;5047931;28;20140;-84
2022/01/17 02:25:09;;;;;;;29.73;4.18;;;;;;;;;;5028976;28;20056;-83
2022/01/17 02:27:35;;;;;;;26.67;3.28;;;;;;;;;;5044532;28;20051;-84
2022/01/17 02:30:01;;;;;;;20.60;2.58;;;;;;;;;;5048129;28;20072;-83
2022/01/17 02:32:27;;;;;;;18.75;2.63;;;;;;;;;;5045963;28;20037;-85
2022/01/17 02:35:10;;;;;;;20.50;3.22;;;;;;;;;;5046460;28;20040;-83
2022/01/17 02:37:36;;;;;;;26.60;4.18;;;;;;;;;;5047352;28;20044;-85
2022/01/17 02:40:02;;;;;;;24.05;3.53;;;;;;;;;;5044546;28;20496;-83
2022/01/17 02:42:28;;;;;;;27.73;3.20;;;;;;;;;;5045137;28;20041;-83
2022/01/17 02:45:00;;;;;;;24.17;3.33;;;;;;;;;;5024086;28;20047;-83
2022/01/17 02:47:26;;;;;;;30.58;3.75;;;;;;;;;;5046644;28;20056;-84
2022/01/17 02:49:52;;;;;;;19.90;2.88;;;;;;;;;;5043975;28;20068;-84
2022/01/17 02:52:23;;;;;;;29.63;3.40;;;;;;;;;;5046131;28;20128;-83
2022/01/17 02:54:49;;;;;;;21.05;3.25;;;;;;;;;;5046466;28;20149;-84
2022/01/17 02:57:15;;;;;;;20.90;3.15;;;;;;;;;;5043626;28;20087;-83
2022/01/17 02:59:42;;;;;;;26.45;3.38;;;;;;;;;;5047031;28;20382;-84
2022/01/17 03:02:08;;;;;;;22.35;3.25;;;;;;;;;;5044274;28;20051;-83
2022/01/17 03:04:34;;;;;;;22.83;3.80;;;;;;;;;;5046811;28;20059;-83
2022/01/17 03:07:00;;;;;;;25.92;3.97;;;;;;;;;;5044867;28;20036;-82
2022/01/17 03:09:38;;;;;;;19.05;2.97;;;;;;;;;;4994384;28;20055;-84
2022/01/17 03:12:04;;;;;;;26.58;3.40;;;;;;;;;;5043840;28;20080;-83
2022/01/17 03:14:32;;;;;;;25.15;4.18;;;;;;;;;;5040004;28;20415;-84
2022/01/17 03:16:59;;;;;;;26.20;3.75;;;;;;;;;;5027752;28;20077;-82
2022/01/17 03:19:37;;;;;;;24.77;2.85;;;;;;;;;;5045092;28;20041;-84
2022/01/17 03:22:03;;;;;;;19.00;3.72;;;;;;;;;;5045158;28;20766;-83
2022/01/17 03:24:29;;;;;;;23.40;4.03;;;;;;;;;;5044124;28;20045;-84
2022/01/17 03:26:55;;;;;;;34.55;5.07;;;;;;;;;;5045820;28;20043;-84
2022/01/17 03:29:21;;;;;;;26.38;3.95;;;;;;;;;;5027617;28;20049;-84
2022/01/17 03:31:47;;;;;;;34.42;3.88;;;;;;;;;;5042009;28;20037;-84
2022/01/17 03:34:14;;;;;;;31.05;3.22;;;;;;;;;;5028371;28;20051;-85
2022/01/17 03:36:40;;;;;;;19.75;3.15;;;;;;;;;;5026003;28;20053;-83
2022/01/17 03:39:06;;;;;;;31.63;4.30;;;;;;;;;;5046888;28;20051;-85
2022/01/17 03:41:32;;;;;;;28.42;4.82;;;;;;;;;;5042469;28;20051;-86
2022/01/17 03:43:58;;;;;;;35.08;4.53;;;;;;;;;;5040742;28;20120;-85
2022/01/17 03:46:26;;;;;;;22.95;3.60;;;;;;;;;;5026630;28;20634;-83
2022/01/17 03:48:53;;;;;;;21.95;3.05;;;;;;;;;;5022038;28;20037;-83
2022/01/17 03:51:19;;;;;;;20.67;3.13;;;;;;;;;;5035465;28;20041;-84
2022/01/17 03:53:45;;;;;;;26.38;3.97;;;;;;;;;;5053842;28;20072;-85
2022/01/17 03:56:11;;;;;;;27.50;3.65;;;;;;;;;;5045678;28;20500;-85
2022/01/17 03:58:37;;;;;;;28.33;4.00;;;;;;;;;;5026672;28;20045;-85
2022/01/17 04:01:04;;;;;;;24.02;3.40;;;;;;;;;;5045093;28;20072;-85
2022/01/17 04:03:31;;;;;;;23.83;3.85;;;;;;;;;;5044305;28;20055;-85
2022/01/17 04:05:57;;;;;;;19.58;3.30;;;;;;;;;;5045837;28;20073;-83
2022/01/17 04:08:24;;;;;;;29.95;3.33;;;;;;;;;;5044677;28;20052;-85
2022/01/17 04:10:50;;;;;;;25.92;5.18;;;;;;;;;;5043945;28;20475;-84
2022/01/17 04:13:16;;;;;;;22.30;3.35;;;;;;;;;;5045433;28;20056;-85
2022/01/17 04:15:42;;;;;;;24.30;3.63;;;;;;;;;;5009980;28;20392;-85
2022/01/17 04:18:09;;;;;;;26.05;3.88;;;;;;;;;;5042051;28;20440;-84
2022/01/17 04:20:36;;;;;;;28.70;3.92;;;;;;;;;;5043258;28;20450;-86
2022/01/17 04:23:06;;;;;;;29.52;4.20;;;;;;;;;;5028096;28;20037;-84
2022/01/17 04:25:33;;;;;;;24.95;4.05;;;;;;;;;;5009995;28;20033;-84
2022/01/17 04:28:00;;;;;;;26.52;4.75;;;;;;;;;;5027612;28;20052;-84
2022/01/17 04:30:28;;;;;;;36.53;3.72;;;;;;;;;;5049369;28;20059;-84
2022/01/17 04:32:54;;;;;;;25.27;4.53;;;;;;;;;;5044161;28;20455;-82
2022/01/17 04:35:21;;;;;;;16.63;3.10;;;;;;;;;;5031027;28;20047;-85
2022/01/17 04:37:48;;;;;;;21.70;2.53;;;;;;;;;;5047550;28;20492;-84
2022/01/17 04:40:14;;;;;;;21.55;4.18;;;;;;;;;;5049599;28;20469;-84
2022/01/17 04:42:45;;;;;;;34.80;3.58;;;;;;;;;;5047222;28;20403;-85
2022/01/17 04:45:13;;;;;;;22.48;3.58;;;;;;;;;;5049002;28;20079;-85
2022/01/17 04:47:40;;;;;;;21.23;3.85;;;;;;;;;;5043854;28;20060;-85
2022/01/17 04:50:10;;;;;;;22.73;3.53;;;;;;;;;;5047306;28;20504;-84
2022/01/17 04:52:37;;;;;;;31.55;3.75;;;;;;;;;;5048372;28;20041;-83
2022/01/17 04:55:04;;;;;;;25.52;3.75;;;;;;;;;;4998399;28;20124;-85
2022/01/17 04:57:30;;;;;;;28.98;4.05;;;;;;;;;;5049641;28;20110;-83
2022/01/17 04:59:57;;;;;;;29.33;3.97;;;;;;;;;;5045878;28;20056;-84
2022/01/17 05:02:36;;;;;;;23.13;3.65;;;;;;;;;;5027257;28;20037;-85
2022/01/17 05:05:05;;;;;;;28.23;3.72;;;;;;;;;;5043720;28;20136;-85
2022/01/17 05:07:32;;;;;;;28.23;4.03;;;;;;;;;;5026597;28;20038;-83
2022/01/17 05:09:59;;;;;;;36.33;5.97;;;;;;;;;;5044912;28;20127;-84
2022/01/17 05:12:26;;;;;;;24.80;4.18;;;;;;;;;;5043667;28;20049;-81
2022/01/17 05:14:53;;;;;;;25.67;4.53;;;;;;;;;;5046457;28;20068;-84
2022/01/17 05:20:01;;;;;;;25.02;4.90;;;;;;;;;;5045015;28;20131;-83
2022/01/17 05:22:32;;;;;;;42.22;6.22;;;;;;;;;;5042633;28;20084;-82
2022/01/17 05:25:04;;;;;;;33.88;4.85;;;;;;;;;;5042204;28;20056;-83
2022/01/17 05:27:30;;;;;;;26.92;4.55;;;;;;;;;;5028974;28;20041;-82
2022/01/17 05:29:56;;;;;;;26.58;4.15;;;;;;;;;;5044041;28;20741;-84
2022/01/17 05:32:22;;;;;;;30.02;4.40;;;;;;;;;;5048427;28;20060;-84
2022/01/17 05:34:49;;;;;;;37.83;5.30;;;;;;;;;;5046064;28;20087;-84
2022/01/17 05:37:15;;;;;;;39.83;4.63;;;;;;;;;;5048288;28;20053;-83
2022/01/17 05:39:42;;;;;;;30.15;4.93;;;;;;;;;;5028929;28;20053;-85
2022/01/17 05:42:10;;;;;;;22.17;4.88;;;;;;;;;;5048164;28;20063;-84
2022/01/17 05:44:36;;;;;;;33.97;5.38;;;;;;;;;;5047232;28;20048;-85
2022/01/17 05:47:02;;;;;;;30.27;4.93;;;;;;;;;;5044876;28;20028;-83
2022/01/17 05:49:28;;;;;;;34.80;5.15;;;;;;;;;;5046270;28;21294;-83
2022/01/17 05:51:54;;;;;;;39.42;4.95;;;;;;;;;;5025115;28;20067;-84
2022/01/17 05:54:20;;;;;;;30.50;5.68;;;;;;;;;;5031134;28;20865;-83
2022/01/17 05:56:47;;;;;;;37.42;5.20;;;;;;;;;;5051908;28;20447;-82
2022/01/17 05:59:16;;;;;;;38.05;4.63;;;;;;;;;;5056037;28;20048;-87
2022/01/17 06:01:44;;;;;;;42.40;5.30;;;;;;;;;;5047800;28;20397;-86
2022/01/17 06:04:10;;;;;;;34.88;6.00;;;;;;;;;;5028294;28;20593;-83
2022/01/17 06:06:36;;;;;;;27.85;4.93;;;;;;;;;;5045361;28;20383;-82
2022/01/17 06:09:03;;;;;;;33.63;5.55;;;;;;;;;;5043986;28;20128;-82
2022/01/17 06:11:30;;;;;;;35.65;5.85;;;;;;;;;;5045933;28;20041;-86
2022/01/17 06:13:59;;;;;;;42.90;4.85;;;;;;;;;;5035372;28;20084;-83
2022/01/17 06:16:25;;;;;;;33.85;5.75;;;;;;;;;;5028034;28;20052;-87
2022/01/17 06:18:51;;;;;;;28.00;5.03;;;;;;;;;;5009222;28;20047;-83
2022/01/17 06:21:17;;;;;;;36.50;5.50;;;;;;;;;;5045079;28;20044;-85
2022/01/17 06:23:43;;;;;;;34.00;5.72;;;;;;;;;;5026625;28;20045;-85
2022/01/17 06:26:09;;;;;;;30.55;4.35;;;;;;;;;;5043668;28;20048;-84
2022/01/17 06:28:36;;;;;;;41.75;6.35;;;;;;;;;;5044453;28;20128;-86
2022/01/17 06:31:02;;;;;;;30.00;4.90;;;;;;;;;;5024834;28;20128;-87
2022/01/17 06:33:28;;;;;;;32.08;4.38;;;;;;;;;;5044764;28;20052;-85
2022/01/17 06:35:54;;;;;;;35.25;5.43;;;;;;;;;;5024800;28;20052;-84
2022/01/17 06:38:20;;;;;;;43.67;6.35;;;;;;;;;;5045532;28;20602;-86
2022/01/17 06:40:46;;;;;;;29.05;5.88;;;;;;;;;;5022314;28;20056;-85
2022/01/17 06:43:13;;;;;;;33.60;5.25;;;;;;;;;;5043659;28;20090;-85
2022/01/17 06:45:40;;;;;;;42.28;5.75;;;;;;;;;;5044655;28;20045;-86
2022/01/17 06:48:06;;;;;;;46.80;4.47;;;;;;;;;;5043312;28;20507;-84
2022/01/17 06:50:33;;;;;;;50.20;7.05;;;;;;;;;;5026679;28;20041;-87
2022/01/17 06:52:59;;;;;;;35.25;5.90;;;;;;;;;;5007935;28;20062;-86
2022/01/17 06:55:25;;;;;;;43.58;5.38;;;;;;;;;;5024088;28;20033;-86
2022/01/17 06:57:51;;;;;;;41.17;5.97;;;;;;;;;;5043126;28;20049;-87
2022/01/17 07:00:17;;;;;;;39.72;5.88;;;;;;;;;;5026779;28;20043;-85
2022/01/17 07:02:44;;;;;;;40.85;6.68;;;;;;;;;;5001438;28;20136;-87
2022/01/17 07:05:10;;;;;;;57.42;7.40;;;;;;;;;;5026242;28;20094;-87
2022/01/17 07:07:36;;;;;;;58.60;6.30;;;;;;;;;;5008992;28;20180;-85
2022/01/17 07:10:02;;;;;;;42.05;5.38;;;;;;;;;;5026659;28;20037;-84
2022/01/17 07:12:28;;;;;;;42.72;6.85;;;;;;;;;;5045987;28;20026;-85
2022/01/17 07:14:56;;;;;;;38.45;5.60;;;;;;;;;;5044032;28;20037;-86
2022/01/17 07:17:22;;;;;;;49.30;6.55;;;;;;;;;;5045132;28;20037;-84
2022/01/17 07:19:48;;;;;;;46.30;5.22;;;;;;;;;;5043812;28;20952;-86
2022/01/17 07:22:14;;;;;;;42.90;4.88;;;;;;;;;;5026816;28;20033;-86
2022/01/17 07:24:40;;;;;;;45.75;6.43;;;;;;;;;;5027221;28;20060;-88
2022/01/17 07:27:06;;;;;;;38.88;5.93;;;;;;;;;;5043893;28;20483;-86
2022/01/17 07:29:32;;;;;;;35.65;5.30;;;;;;;;;;5045252;28;20071;-87
2022/01/17 07:31:58;;;;;;;39.30;6.07;;;;;;;;;;5038146;28;20129;-84
2022/01/17 07:34:24;;;;;;;38.28;5.28;;;;;;;;;;5025830;28;20120;-86
2022/01/17 07:36:51;;;;;;;35.47;4.93;;;;;;;;;;5024394;28;20056;-86
2022/01/17 07:39:17;;;;;;;34.10;5.07;;;;;;;;;;5044441;28;20048;-86
2022/01/17 07:41:43;;;;;;;42.38;7.30;;;;;;;;;;5025878;28;20516;-85
2022/01/17 07:44:19;;;;;;;39.33;5.75;;;;;;;;;;5042236;28;20032;-83
2022/01/17 07:46:49;;;;;;;37.08;6.10;;;;;;;;;;5046025;28;20500;-83
2022/01/17 07:49:19;;;;;;;55.75;6.75;;;;;;;;;;5041631;28;20041;-85
2022/01/17 07:51:46;;;;;;;45.67;6.13;;;;;;;;;;5045761;28;20049;-84
2022/01/17 07:54:14;;;;;;;36.90;7.43;;;;;;;;;;5024669;28;20118;-86
2022/01/17 07:56:41;;;;;;;38.80;6.22;;;;;;;;;;5046530;28;20045;-86
2022/01/17 07:59:07;;;;;;;43.03;6.85;;;;;;;;;;5028213;28;20101;-85
2022/01/17 08:01:33;;;;;;;44.05;5.70;;;;;;;;;;5028132;28;20049;-85
2022/01/17 08:04:00;;;;;;;62.95;9.55;;;;;;;;;;5031382;28;20037;-85
2022/01/17 08:06:26;;;;;;;41.13;6.25;;;;;;;;;;5035269;28;20515;-84
2022/01/17 08:08:55;;;;;;;41.42;5.47;;;;;;;;;;5062351;28;20063;-82
2022/01/17 08:11:21;;;;;;;47.47;6.72;;;;;;;;;;5036523;28;20087;-82
2022/01/17 08:13:47;;;;;;;45.13;7.10;;;;;;;;;;5051389;28;20079;-81
2022/01/17 08:16:15;;;;;;;51.10;6.80;;;;;;;;;;5048445;28;20052;-81
2022/01/17 08:18:41;;;;;;;50.17;6.35;;;;;;;;;;5048964;28;20041;-79
2022/01/17 08:21:07;;;;;;;49.15;6.55;;;;;;;;;;5050191;28;20037;-81
2022/01/17 08:23:34;;;;;;;47.28;7.57;;;;;;;;;;5047184;28;20041;-82
2022/01/17 08:26:00;;;;;;;49.28;7.20;;;;;;;;;;5033062;28;20049;-83
2022/01/17 08:28:26;;;;;;;42.47;6.97;;;;;;;;;;5048173;28;20040;-82
2022/01/17 08:30:52;;;;;;;46.42;7.50;;;;;;;;;;5031402;28;20130;-81
2022/01/17 08:33:18;;;;;;;49.03;7.82;;;;;;;;;;5047485;28;20033;-81
2022/01/17 08:35:44;;;;;;;45.45;6.90;;;;;;;;;;5031598;28;20091;-82
2022/01/17 08:38:11;;;;;;;46.28;7.22;;;;;;;;;;5031207;28;20040;-83
2022/01/17 08:40:37;;;;;;;51.78;6.40;;;;;;;;;;5048742;28;20078;-81
2022/01/17 08:43:03;;;;;;;45.22;7.10;;;;;;;;;;5046869;28;20098;-84
2022/01/17 08:45:29;;;;;;;53.92;8.27;;;;;;;;;;5044519;28;20131;-83
2022/01/17 08:47:56;;;;;;;50.47;7.68;;;;;;;;;;5026679;28;20128;-81
2022/01/17 08:50:23;;;;;;;47.22;7.65;;;;;;;;;;5048388;28;20669;-81
2022/01/17 08:52:49;;;;;;;52.25;7.28;;;;;;;;;;5049208;28;20507;-83
2022/01/17 08:55:16;;;;;;;55.08;8.68;;;;;;;;;;5030042;28;20434;-81
2022/01/17 08:57:43;;;;;;;58.88;7.63;;;;;;;;;;5048293;28;20243;-85
2022/01/17 09:00:13;;;;;;;51.40;6.80;;;;;;;;;;5049465;28;20606;-82
2022/01/17 09:02:39;;;;;;;47.47;7.07;;;;;;;;;;5026493;28;20041;-83
2022/01/17 09:05:06;;;;;;;51.05;7.57;;;;;;;;;;5031314;28;20477;-81
2022/01/17 09:07:32;;;;;;;58.55;7.97;;;;;;;;;;5046368;28;20037;-84
2022/01/17 09:09:58;;;;;;;44.38;6.85;;;;;;;;;;5049328;28;20041;-83
2022/01/17 09:12:24;;;;;;;45.75;7.97;;;;;;;;;;5047365;28;20060;-84
2022/01/17 09:14:50;;;;;;;48.05;7.93;;;;;;;;;;5044867;28;20049;-82
2022/01/17 09:17:16;;;;;;;38.83;6.18;;;;;;;;;;5048663;28;20123;-85
2022/01/17 09:19:44;;;;;;;42.30;6.28;;;;;;;;;;5047767;28;20041;-82
2022/01/17 09:22:11;;;;;;;47.55;6.85;;;;;;;;;;5030938;28;20116;-83
2022/01/17 09:24:38;;;;;;;53.08;7.70;;;;;;;;;;4996937;28;20037;-84
2022/01/17 09:27:05;;;;;;;41.97;7.28;;;;;;;;;;5049169;28;20044;-82
2022/01/17 09:29:31;;;;;;;48.17;7.93;;;;;;;;;;5047390;28;20032;-85
2022/01/17 09:31:58;;;;;;;52.90;7.72;;;;;;;;;;5048346;28;20049;-84
2022/01/17 09:34:24;;;;;;;74.85;8.27;;;;;;;;;;5046862;28;20048;-86
2022/01/17 09:36:53;;;;;;;48.40;7.75;;;;;;;;;;5047314;28;20873;-85
2022/01/17 09:39:20;;;;;;;48.78;7.18;;;;;;;;;;5012504;28;20040;-86
2022/01/17 09:41:46;;;;;;;57.10;7.50;;;;;;;;;;5029237;28;20065;-84
2022/01/17 09:44:12;;;;;;;47.30;7.57;;;;;;;;;;5045906;28;20041;-84
2022/01/17 09:46:43;;;;;;;56.65;7.88;;;;;;;;;;5046386;28;20071;-85
2022/01/17 09:49:22;;;;;;;55.50;8.10;;;;;;;;;;5029033;28;20041;-84
2022/01/17 09:52:05;;;;;;;68.00;8.68;;;;;;;;;;5044343;28;20044;-86
2022/01/17 09:54:32;;;;;;;55.65;8.20;;;;;;;;;;5029111;28;20087;-82
2022/01/17 09:57:01;;;;;;;60.67;8.82;;;;;;;;;;5010576;28;20049;-85
2022/01/17 09:59:30;;;;;;;53.30;7.03;;;;;;;;;;5010342;28;20041;-86
2022/01/17 10:01:56;;;;;;;59.30;9.85;;;;;;;;;;5046439;28;20485;-85
2022/01/17 10:04:22;;;;;;;51.95;8.77;;;;;;;;;;5017497;28;20052;-83
2022/01/17 10:06:55;;;;;;;54.20;8.45;;;;;;;;;;5029253;28;20067;-84
2022/01/17 10:09:22;;;;;;;54.58;8.20;;;;;;;;;;5031309;28;20166;-86
2022/01/17 10:12:00;;;;;;;60.72;9.73;;;;;;;;;;5046896;28;20044;-83
2022/01/17 10:14:27;;;;;;;48.10;7.25;;;;;;;;;;5052956;28;20049;-86
2022/01/17 10:16:53;;;;;;;62.97;9.98;;;;;;;;;;5055734;28;20084;-84
2022/01/17 10:19:28;;;;;;;54.03;7.63;;;;;;;;;;5054985;28;20068;-85
2022/01/17 10:21:57;;;;;;;57.20;9.88;;;;;;;;;;5044772;28;20409;-82
2022/01/17 10:24:28;;;;;;;79.57;9.45;;;;;;;;;;5047840;28;20163;-86
2022/01/17 10:37:17;;;;;;;77.68;10.50;;;;;;;;;;5047743;28;20147;-83
2022/01/17 10:39:53;;;;;;;70.72;10.23;;;;;;;;;;5046244;28;20045;-83
2022/01/17 10:42:42;;;;;;;85.25;11.32;;;;;;;;;;5045841;28;20442;-81
2022/01/17 10:45:16;;;;;;;88.28;11.70;;;;;;;;;;5013042;28;20029;-86
2022/01/17 10:47:46;;;;;;;73.55;9.30;;;;;;;;;;5027581;28;20045;-82
2022/01/17 10:50:14;;;;;;;79.85;11.73;;;;;;;;;;5046463;28;20087;-85
2022/01/17 10:52:42;;;;;;;68.53;9.25;;;;;;;;;;5046104;28;20106;-87
2022/01/17 10:55:13;;;;;;;67.53;10.63;;;;;;;;;;5017893;28;20555;-82
2022/01/17 10:57:41;;;;;;;64.72;9.57;;;;;;;;;;5045880;28;20060;-83
2022/01/17 11:00:08;;;;;;;67.13;9.77;;;;;;;;;;5026087;28;20631;-83
2022/01/17 11:02:36;;;;;;;73.47;11.32;;;;;;;;;;5023758;28;20045;-83
2022/01/17 11:05:04;;;;;;;75.07;9.80;;;;;;;;;;5043992;28;20124;-84
2022/01/17 11:07:30;;;;;;;76.10;11.73;;;;;;;;;;5047080;28;20037;-83
2022/01/17 11:10:00;;;;;;;78.72;12.65;;;;;;;;;;5044670;28;20424;-82
2022/01/17 11:12:28;;;;;;;80.28;11.10;;;;;;;;;;5028079;28;20041;-82
2022/01/17 11:14:57;;;;;;;79.38;11.88;;;;;;;;;;5028360;28;20069;-84
2022/01/17 11:17:24;;;;;;;77.90;11.30;;;;;;;;;;5022995;28;20515;-83
2022/01/17 11:22:29;;;;;;;79.68;11.27;;;;;;;;;;5044345;28;20045;-82
2022/01/17 11:24:56;;;;;;;77.68;12.13;;;;;;;;;;5027469;28;20089;-84
2022/01/17 11:27:22;;;;;;;72.90;11.50;;;;;;;;;;5044994;28;20499;-84
2022/01/17 11:29:49;;;;;;;79.15;12.43;;;;;;;;;;5045828;28;20037;-82
2022/01/17 11:32:15;;;;;;;73.35;10.60;;;;;;;;;;5045859;28;20063;-85
2022/01/17 11:34:41;;;;;;;79.03;9.60;;;;;;;;;;5042511;28;20041;-83
2022/01/17 11:37:08;;;;;;;68.00;9.57;;;;;;;;;;5028601;28;20075;-85
2022/01/17 11:39:43;;;;;;;67.88;10.25;;;;;;;;;;5004427;28;20050;-82
2022/01/17 11:42:28;;;;;;;64.30;9.93;;;;;;;;;;5045926;28;20086;-85
2022/01/17 11:44:53;;;;;;;;;;;9.60;99.90;;;;;;5044171;28;20537;-84
2022/01/17 11:47:39;;;;;;;70.00;10.90;;;;;;;;;;5044669;28;19968;-86
2022/01/17 11:50:24;;;;;;;61.78;9.88;;;;;;;;;;5027779;28;20762;-82
2022/01/17 11:52:50;;;;;;;75.93;9.65;;;;;;;;;;5042314;28;20107;-85
2022/01/17 11:55:35;;;;;;;73.72;10.93;;;;;;;;;;5045779;28;20052;-85
2022/01/17 11:58:27;;;;;;;69.53;10.15;;;;;;;;;;5044215;28;20033;-85
2022/01/17 12:00:59;;;;;;;65.82;10.23;;;;;;;;;;5006958;28;20077;-86
2022/01/17 12:03:32;;;;;;;74.22;11.73;;;;;;;;;;5043921;28;20040;-88
2022/01/17 12:06:04;;;;;;;66.93;9.88;;;;;;;;;;5039714;28;20580;-83
2022/01/17 12:08:33;;;;;;;70.65;9.88;;;;;;;;;;5045557;28;20041;-84
2022/01/17 12:11:03;;;;;;;64.28;10.00;;;;;;;;;;5040854;28;20033;-88
2022/01/17 12:13:40;;;;;;;61.45;10.15;;;;;;;;;;5043942;28;20049;-85
2022/01/17 12:16:16;;;;;;;64.20;9.88;;;;;;;;;;5045565;28;20118;-84
2022/01/17 12:18:50;;;;;;;53.72;9.00;;;;;;;;;;5041965;28;20041;-85
2022/01/17 12:21:24;;;;;;;66.72;9.38;;;;;;;;;;5044302;28;20487;-86
2022/01/17 12:23:50;;;;;;;;;;;;;;;;;;5051227;28;20081;-81
2022/01/17 12:26:32;;;;;;;52.22;8.27;;;;;;;;;;5043384;28;19925;-86
2022/01/17 12:29:00;;;;;;;61.42;9.40;;;;;;;;;;5002119;28;20087;-86
2022/01/17 12:31:38;;;;;;;68.70;11.00;;;;;;;;;;5032358;28;20128;-83
2022/01/17 12:34:18;;;;;;;67.90;8.88;;;;;;;;;;5030493;28;20060;-87
2022/01/17 12:36:46;;;;;;;59.45;9.45;;;;;;;;;;5024948;28;20059;-86
2022/01/17 12:39:12;;;;;;;47.80;8.45;;;;;;;;;;5035112;28;20068;-85
2022/01/17 12:41:41;;;;;;;53.05;8.48;;;;;;;;;;5044782;28;20132;-85
2022/01/17 12:44:14;;;;;;;61.70;9.85;;;;;;;;;;5042261;28;20052;-83
2022/01/17 12:46:42;;;;;;;65.03;10.25;;;;;;;;;;5035334;28;20037;-87
2022/01/17 12:49:08;;;;;;;64.38;8.90;;;;;;;;;;5035480;28;20033;-87
2022/01/17 12:51:34;;;;;;;70.25;8.82;;;;;;;;;;5027176;28;20041;-86
2022/01/17 12:54:02;;;;;;;53.60;8.98;;;;;;;;;;5026927;28;20068;-84
2022/01/17 12:56:30;;;;;;;45.67;7.35;;;;;;;;;;5048017;28;20064;-84
2022/01/17 12:58:59;;;;;;;52.15;8.93;;;;;;;;;;5002512;28;20417;-85
2022/01/17 13:01:26;;;;;;;45.85;7.95;;;;;;;;;;5038611;28;20045;-83
2022/01/17 13:03:52;;;;;;;51.58;8.00;;;;;;;;;;5038771;28;20127;-82
2022/01/17 13:06:19;;;;;;;53.25;7.95;;;;;;;;;;5038750;28;20389;-86
2022/01/17 13:08:46;;;;;;;55.83;9.63;;;;;;;;;;5042240;28;20095;-83
2022/01/17 13:11:17;;;;;;;56.28;7.72;;;;;;;;;;5040271;28;20576;-84
2022/01/17 13:13:53;;;;;;;52.28;8.02;;;;;;;;;;5046037;28;20037;-85
2022/01/17 13:16:23;;;;;;;52.05;8.60;;;;;;;;;;5042337;28;20083;-83
2022/01/17 13:18:50;;;;;;;49.90;8.57;;;;;;;;;;5014471;28;20401;-85
2022/01/17 13:21:16;;;;;;;49.50;8.48;;;;;;;;;;5044822;28;20086;-86
2022/01/17 13:23:51;;;;;;;51.13;9.57;;;;;;;;;;5038965;28;20124;-85
2022/01/17 13:26:30;;;;;;;54.45;8.05;;;;;;;;;;5017745;28;20052;-84
2022/01/17 13:28:57;;;;;;;58.30;9.00;;;;;;;;;;5039475;28;20119;-85
2022/01/17 13:31:31;;;;;;;59.10;8.07;;;;;;;;;;5039278;28;20105;-85
2022/01/17 13:34:09;;;;;;;53.80;8.70;;;;;;;;;;5017580;28;20057;-85
2022/01/17 13:36:36;;;;;;;46.95;7.57;;;;;;;;;;5043759;28;20064;-82
2022/01/17 13:39:18;;;;;;;59.00;9.35;;;;;;;;;;5041085;28;20070;-84
2022/01/17 13:41:46;;;;;;;47.70;8.15;;;;;;;;;;5039126;28;20067;-85
2022/01/17 13:44:13;;;;;;;35.08;6.20;;;;;;;;;;5036274;28;20415;-85
2022/01/17 13:46:52;;;;;;;37.80;6.00;;;;;;;;;;5041477;28;20040;-85
2022/01/17 13:49:18;;;;;;;42.45;7.22;;;;;;;;;;5037289;28;20064;-84
2022/01/17 13:51:46;;;;;;;30.77;5.53;;;;;;;;;;5012640;28;20048;-83
2022/01/17 13:54:22;;;;;;;28.42;3.83;;;;;;;;;;5013261;28;20052;-85
2022/01/17 13:56:49;;;;;;;21.33;3.28;;;;;;;;;;5033337;28;20103;-86
2022/01/17 13:59:16;;;;;;;19.98;3.53;;;;;;;;;;5014929;28;20086;-85
2022/01/17 14:01:42;;;;;;;24.00;3.60;;;;;;;;;;5040680;28;20036;-84
2022/01/17 14:04:25;;;;;;;19.17;2.95;;;;;;;;;;5039891;28;20049;-85
2022/01/17 14:06:51;;;;;;;17.98;2.95;;;;;;;;;;5046095;28;20045;-85
2022/01/17 14:09:28;;;;;;;16.67;2.83;;;;;;;;;;5035663;28;20038;-84
2022/01/17 14:11:54;;;;;;;17.88;3.22;;;;;;;;;;5040238;28;20742;-82
2022/01/17 14:14:21;;;;;;;17.80;3.25;;;;;;;;;;5034360;28;20048;-84
2022/01/17 14:16:47;;;;;;;23.38;2.85;;;;;;;;;;5047618;28;20073;-83
2022/01/17 14:19:16;;;;;;;19.67;2.90;;;;;;;;;;5045345;28;20072;-85
2022/01/17 14:21:42;;;;;;;20.27;3.15;;;;;;;;;;5027682;28;20045;-85
2022/01/17 14:24:17;;;;;;;25.13;3.60;;;;;;;;;;5050614;28;20054;-83
2022/01/17 14:26:53;;;;;;;32.53;4.35;;;;;;;;;;5024876;28;20041;-84
2022/01/17 14:29:30;;;;;;;25.45;4.97;;;;;;;;;;5022434;28;20053;-81
2022/01/17 14:31:57;;;;;;;19.33;3.22;;;;;;;;;;5043161;28;20073;-81
2022/01/17 14:34:24;;;;;;;24.55;3.67;;;;;;;;;;5047359;28;20190;-83
2022/01/17 14:37:09;;;;;;;24.30;4.03;;;;;;;;;;5037062;28;20497;-84
2022/01/17 14:39:58;;;;;;;24.80;4.03;;;;;;;;;;5056585;28;20403;-81
2022/01/17 14:42:35;;;;;;;22.05;3.63;;;;;;;;;;5030451;28;20088;-82
2022/01/17 14:45:01;;;;;;;23.17;2.95;;;;;;;;;;5042551;28;20057;-84
2022/01/17 14:47:35;;;;;;;21.40;2.83;;;;;;;;;;5043749;28;20432;-86
2022/01/17 14:50:02;;;;;;;23.00;3.38;;;;;;;;;;5010878;28;20048;-84
2022/01/17 14:52:30;;;;;;;22.45;3.22;;;;;;;;;;5024676;28;20064;-85
2022/01/17 15:05:21;;;;;;;20.27;3.42;;;;;;;;;;5016517;28;20041;-87
2022/01/17 15:07:51;;;;;;;22.38;2.35;;;;;;;;;;5024651;28;20075;-81
2022/01/17 15:10:18;;;;;;;18.17;2.90;;;;;;;;;;5041214;28;20041;-85
2022/01/17 15:12:45;;;;;;;16.58;2.80;;;;;;;;;;5038382;28;20099;-85